createdAt,value
2023-02-01T00:01:39.914Z,23.70
2023-02-01T00:04:10.881Z,23.96
2023-02-01T00:06:42.038Z,23.70
2023-02-01T00:09:13.245Z,23.37
2023-02-01T00:11:44.269Z,23.59
2023-02-01T00:14:15.986Z,24.21
2023-02-01T00:16:46.368Z,24.42
2023-02-01T00:19:18.785Z,24.18
2023-02-01T00:21:50.265Z,24.53
2023-02-01T00:24:21.284Z,24.87
2023-02-01T00:26:52.139Z,24.90
2023-02-01T00:29:24.381Z,24.78
2023-02-01T00:31:55.831Z,24.14
2023-02-01T00:34:27.312Z,23.59
2023-02-01T00:36:58.749Z,23.61
2023-02-01T00:39:29.706Z,23.64
2023-02-01T00:42:00.666Z,23.44
2023-02-01T00:44:35.608Z,23.07
2023-02-01T00:47:06.553Z,23.39
2023-02-01T00:49:37.835Z,23.15
2023-02-01T00:52:08.649Z,23.07
2023-02-01T00:54:40.258Z,23.16
2023-02-01T00:57:11.508Z,23.07
2023-02-01T00:59:42.874Z,22.86
2023-02-01T01:02:16.648Z,23.06
2023-02-01T01:04:47.991Z,23.28
2023-02-01T01:07:19.145Z,23.19
2023-02-01T01:09:50.245Z,22.97
2023-02-01T01:12:22.259Z,23.19
2023-02-01T01:14:52.670Z,23.48
2023-02-01T01:17:23.904Z,23.59
2023-02-01T01:19:54.950Z,23.99
2023-02-01T01:22:26.459Z,23.80
2023-02-01T01:24:57.878Z,23.82
2023-02-01T01:27:29.328Z,23.76
2023-02-01T01:30:00.730Z,24.04
2023-02-01T01:32:34.024Z,24.15
2023-02-01T01:35:06.138Z,24.30
2023-02-01T01:37:39.042Z,23.89
2023-02-01T01:40:10.196Z,24.09
2023-02-01T01:42:47.021Z,23.92
2023-02-01T01:45:47.534Z,23.91
2023-02-01T01:48:18.710Z,23.91
2023-02-01T01:51:00.957Z,24.07
2023-02-01T01:53:37.026Z,24.13
2023-02-01T01:56:08.375Z,24.44
2023-02-01T01:58:40.369Z,24.77
2023-02-01T02:01:11.495Z,24.47
2023-02-01T02:03:43.790Z,24.63
2023-02-01T02:06:26.621Z,25.72
2023-02-01T02:08:57.737Z,24.89
2023-02-01T02:11:28.898Z,23.96
2023-02-01T02:14:01.173Z,23.98
2023-02-01T02:16:41.766Z,23.99
2023-02-01T02:19:27.599Z,24.54
2023-02-01T02:22:19.501Z,24.85
2023-02-01T02:25:19.758Z,24.69
2023-02-01T02:28:11.398Z,24.05
2023-02-01T02:31:08.211Z,23.65
2023-02-01T02:33:50.849Z,23.68
2023-02-01T02:36:28.169Z,24.56
2023-02-01T02:39:08.161Z,24.56
2023-02-01T02:42:36.231Z,24.62
2023-02-01T02:45:29.780Z,25.30
2023-02-01T02:48:22.025Z,26.33
2023-02-01T02:51:27.446Z,25.85
2023-02-01T02:54:26.957Z,25.82
2023-02-01T02:57:17.640Z,25.90
2023-02-01T03:00:08.896Z,25.84
2023-02-01T03:02:58.727Z,25.76
2023-02-01T03:05:37.173Z,25.21
2023-02-01T03:08:19.576Z,24.84
2023-02-01T03:10:59.583Z,24.46
2023-02-01T03:13:55.483Z,24.60
2023-02-01T03:16:34.551Z,24.69
2023-02-01T03:19:15.793Z,24.41
2023-02-01T03:22:11.854Z,24.43
2023-02-01T03:24:45.556Z,24.13
2023-02-01T03:27:21.412Z,24.27
2023-02-01T03:30:12.087Z,24.50
2023-02-01T03:33:04.761Z,25.25
2023-02-01T03:35:47.603Z,24.81
2023-02-01T03:38:33.950Z,24.83
2023-02-01T03:41:12.038Z,25.03
2023-02-01T03:43:49.677Z,25.69
2023-02-01T03:46:30.221Z,26.11
2023-02-01T03:49:02.894Z,25.73
2023-02-01T03:51:34.873Z,25.78
2023-02-01T03:54:07.108Z,25.88
2023-02-01T03:56:40.332Z,26.36
2023-02-01T03:59:12.088Z,27.16
2023-02-01T04:01:43.131Z,27.02
2023-02-01T04:04:22.216Z,26.68
2023-02-01T04:06:57.221Z,27.53
2023-02-01T04:09:28.715Z,27.64
2023-02-01T04:11:59.842Z,27.06
2023-02-01T04:14:30.965Z,27.55
2023-02-01T04:17:02.124Z,27.61
2023-02-01T04:19:33.662Z,28.14
2023-02-01T04:22:05.087Z,27.98
2023-02-01T04:24:36.296Z,27.71
2023-02-01T04:27:08.399Z,27.78
2023-02-01T04:29:40.276Z,28.19
2023-02-01T04:32:11.767Z,27.80
2023-02-01T04:34:42.801Z,27.64
2023-02-01T04:37:13.902Z,27.34
2023-02-01T04:39:44.804Z,27.57
2023-02-01T04:42:16.075Z,27.46
2023-02-01T04:44:46.524Z,27.73
2023-02-01T04:47:18.223Z,27.13
2023-02-01T04:49:49.617Z,27.64
2023-02-01T04:52:20.657Z,27.45
2023-02-01T04:54:52.129Z,27.45
2023-02-01T04:57:23.443Z,27.78
2023-02-01T04:59:53.946Z,27.51
2023-02-01T05:02:25.185Z,27.62
2023-02-01T05:04:58.290Z,27.31
2023-02-01T05:07:29.454Z,26.91
2023-02-01T05:10:00.868Z,26.95
2023-02-01T05:12:51.569Z,27.38
2023-02-01T05:15:22.957Z,27.07
2023-02-01T05:17:54.043Z,27.35
2023-02-01T05:20:25.361Z,27.25
2023-02-01T05:22:56.402Z,26.99
2023-02-01T05:25:27.498Z,26.95
2023-02-01T05:27:59.083Z,26.88
2023-02-01T05:30:30.376Z,27.14
2023-02-01T05:33:00.972Z,26.90
2023-02-01T05:35:32.197Z,27.15
2023-02-01T05:38:03.117Z,27.13
2023-02-01T05:40:33.981Z,27.35
2023-02-01T05:43:05.089Z,27.09
2023-02-01T05:45:36.616Z,27.06
2023-02-01T05:48:08.380Z,26.87
2023-02-01T05:50:39.843Z,27.26
2023-02-01T05:53:13.078Z,27.53
2023-02-01T05:55:45.379Z,27.29
2023-02-01T05:58:16.693Z,27.83
2023-02-01T06:00:47.648Z,27.63
2023-02-01T06:03:18.590Z,27.64
2023-02-01T06:05:49.903Z,27.71
2023-02-01T06:08:21.223Z,27.52
2023-02-01T06:10:52.425Z,27.68
2023-02-01T06:13:24.132Z,27.80
2023-02-01T06:15:58.299Z,27.79
2023-02-01T06:18:29.472Z,27.30
2023-02-01T06:21:03.171Z,27.19
2023-02-01T06:23:34.626Z,26.84
2023-02-01T06:26:10.571Z,27.12
2023-02-01T06:28:42.025Z,26.93
2023-02-01T06:31:13.451Z,26.54
2023-02-01T06:33:44.762Z,26.69
2023-02-01T06:36:18.293Z,26.68
2023-02-01T06:38:49.307Z,26.41
2023-02-01T06:41:23.009Z,26.16
2023-02-01T06:43:54.471Z,26.19
2023-02-01T06:46:25.520Z,25.81
2023-02-01T06:48:58.143Z,25.57
2023-02-01T06:51:31.701Z,25.40
2023-02-01T06:54:03.164Z,25.18
2023-02-01T06:56:34.906Z,25.38
2023-02-01T06:59:11.292Z,25.26
2023-02-01T07:01:42.881Z,25.22
2023-02-01T07:04:14.305Z,25.13
2023-02-01T07:06:45.540Z,24.86
2023-02-01T07:09:16.947Z,24.79
2023-02-01T07:11:47.514Z,24.76
2023-02-01T07:14:18.866Z,24.59
2023-02-01T07:16:50.328Z,24.42
2023-02-01T07:21:52.455Z,24.19
2023-02-01T07:24:23.703Z,24.14
2023-02-01T07:26:54.522Z,24.20
2023-02-01T07:29:25.738Z,24.28
2023-02-01T07:31:56.935Z,24.08
2023-02-01T07:34:28.013Z,24.01
2023-02-01T07:36:58.975Z,24.00
2023-02-01T07:39:30.855Z,24.02
2023-02-01T07:42:05.756Z,23.96
2023-02-01T07:44:36.431Z,23.99
2023-02-01T07:47:07.575Z,23.82
2023-02-01T07:49:39.416Z,23.85
2023-02-01T07:52:10.724Z,23.85
2023-02-01T07:54:41.688Z,23.73
2023-02-01T07:57:14.269Z,23.67
2023-02-01T08:00:05.668Z,23.71
2023-02-01T08:02:43.001Z,23.63
2023-02-01T08:05:13.809Z,23.69
2023-02-01T08:07:44.990Z,23.59
2023-02-01T08:10:16.255Z,23.53
2023-02-01T08:12:50.473Z,23.46
2023-02-01T08:15:22.051Z,23.55
2023-02-01T08:17:54.446Z,23.54
2023-02-01T08:20:26.338Z,23.58
2023-02-01T08:22:58.316Z,23.40
2023-02-01T08:25:30.123Z,23.49
2023-02-01T08:28:00.505Z,23.46
2023-02-01T08:30:31.736Z,23.42
2023-02-01T08:33:03.536Z,23.33
2023-02-01T08:35:43.292Z,23.22
2023-02-01T08:38:15.148Z,23.25
2023-02-01T08:40:46.408Z,23.14
2023-02-01T08:43:17.374Z,23.04
2023-02-01T08:45:48.787Z,23.06
2023-02-01T08:48:20.106Z,22.98
2023-02-01T08:50:51.718Z,22.95
2023-02-01T08:53:23.149Z,22.93
2023-02-01T08:55:54.246Z,22.79
2023-02-01T08:58:25.486Z,22.76
2023-02-01T09:00:56.259Z,22.77
2023-02-01T09:03:27.768Z,22.70
2023-02-01T09:06:07.344Z,22.69
2023-02-01T09:08:39.452Z,22.77
2023-02-01T09:11:15.525Z,22.64
2023-02-01T09:13:47.152Z,22.62
2023-02-01T09:16:18.914Z,22.48
2023-02-01T09:18:56.658Z,22.52
2023-02-01T09:21:39.319Z,22.45
2023-02-01T09:24:11.652Z,22.48
2023-02-01T09:26:43.084Z,22.46
2023-02-01T09:29:14.393Z,22.42
2023-02-01T09:31:57.430Z,22.36
2023-02-01T09:34:33.550Z,22.27
2023-02-01T09:37:04.789Z,22.25
2023-02-01T09:39:36.118Z,22.17
2023-02-01T09:42:44.047Z,22.13
2023-02-01T09:45:30.890Z,22.05
2023-02-01T09:48:07.885Z,22.03
2023-02-01T09:50:41.953Z,21.91
2023-02-01T09:53:53.162Z,21.90
2023-02-01T09:57:13.154Z,21.87
2023-02-01T09:59:51.583Z,21.93
2023-02-01T10:02:29.213Z,21.88
2023-02-01T10:05:04.735Z,21.82
2023-02-01T10:08:01.922Z,21.93
2023-02-01T10:10:50.850Z,21.86
2023-02-01T10:13:39.051Z,21.78
2023-02-01T10:16:17.642Z,21.78
2023-02-01T10:19:11.053Z,21.80
2023-02-01T10:22:02.188Z,21.72
2023-02-01T10:24:51.691Z,21.74
2023-02-01T10:27:23.748Z,21.75
2023-02-01T10:30:09.852Z,21.74
2023-02-01T10:32:43.588Z,21.71
2023-02-01T10:35:38.923Z,21.67
2023-02-01T10:38:28.969Z,21.67
2023-02-01T10:41:23.950Z,21.65
2023-02-01T10:43:58.328Z,21.63
2023-02-01T10:46:29.728Z,21.52
2023-02-01T10:49:04.035Z,21.59
2023-02-01T10:51:44.234Z,21.60
2023-02-01T10:54:35.228Z,21.53
2023-02-01T10:57:06.421Z,21.50
2023-02-01T10:59:38.852Z,21.49
2023-02-01T11:02:30.348Z,21.47
2023-02-01T11:05:14.590Z,21.49
2023-02-01T11:07:51.813Z,21.36
2023-02-01T11:10:44.000Z,21.35
2023-02-01T11:13:20.555Z,21.18
2023-02-01T11:15:59.129Z,21.28
2023-02-01T11:18:32.691Z,21.31
2023-02-01T11:21:03.986Z,21.28
2023-02-01T11:23:36.051Z,21.29
2023-02-01T11:26:27.953Z,21.24
2023-02-01T11:29:06.562Z,21.12
2023-02-01T11:31:38.519Z,21.13
2023-02-01T11:34:23.780Z,21.07
2023-02-01T11:37:03.217Z,21.12
2023-02-01T11:39:38.238Z,21.18
2023-02-01T11:42:19.602Z,21.19
2023-02-01T11:44:51.670Z,21.17
2023-02-01T11:47:23.975Z,21.20
2023-02-01T11:49:57.855Z,21.07
2023-02-01T11:52:47.128Z,21.11
2023-02-01T11:55:42.953Z,21.09
2023-02-01T11:58:23.092Z,21.12
2023-02-01T12:01:07.587Z,21.07
2023-02-01T12:04:14.741Z,21.10
2023-02-01T12:06:55.673Z,20.99
2023-02-01T12:09:56.263Z,20.96
2023-02-01T12:12:54.893Z,20.89
2023-02-01T12:15:36.850Z,20.86
2023-02-01T12:18:30.818Z,20.77
2023-02-01T12:21:08.335Z,20.79
2023-02-01T12:24:02.423Z,20.77
2023-02-01T12:26:45.865Z,20.67
2023-02-01T12:29:17.004Z,20.58
2023-02-01T12:31:53.991Z,20.60
2023-02-01T12:34:49.647Z,20.57
2023-02-01T12:37:47.817Z,20.57
2023-02-01T12:40:34.078Z,20.54
2023-02-01T12:43:27.819Z,20.55
2023-02-01T12:46:31.276Z,20.59
2023-02-01T12:49:20.993Z,20.59
2023-02-01T12:51:53.766Z,20.61
2023-02-01T12:54:28.392Z,20.61
2023-02-01T12:57:20.719Z,20.62
2023-02-01T12:59:58.118Z,20.54
2023-02-01T13:02:40.348Z,20.65
2023-02-01T13:05:24.229Z,20.57
2023-02-01T13:08:10.315Z,20.65
2023-02-01T13:10:43.952Z,20.66
2023-02-01T13:13:14.888Z,20.67
2023-02-01T13:16:16.356Z,20.58
2023-02-01T13:18:52.179Z,20.57
2023-02-01T13:21:32.518Z,20.55
2023-02-01T13:24:03.864Z,20.45
2023-02-01T13:26:35.480Z,20.50
2023-02-01T13:29:09.564Z,20.56
2023-02-01T13:32:06.561Z,20.57
2023-02-01T13:34:56.572Z,20.56
2023-02-01T13:37:48.026Z,20.63
2023-02-01T13:40:29.351Z,20.53
2023-02-01T13:43:26.079Z,20.48
2023-02-01T13:46:04.947Z,20.59
2023-02-01T13:48:38.830Z,20.55
2023-02-01T13:51:11.975Z,20.51
2023-02-01T13:53:49.968Z,20.53
2023-02-01T13:56:23.353Z,20.52
2023-02-01T13:58:55.397Z,20.50
2023-02-01T14:01:26.385Z,20.42
2023-02-01T14:04:02.100Z,20.40
2023-02-01T14:06:34.674Z,20.45
2023-02-01T14:09:14.449Z,20.35
2023-02-01T14:11:49.357Z,20.33
2023-02-01T14:14:20.774Z,20.31
2023-02-01T14:16:58.403Z,20.35
2023-02-01T14:19:31.590Z,20.31
2023-02-01T14:22:28.455Z,20.25
2023-02-01T14:25:00.775Z,20.14
2023-02-01T14:27:38.796Z,20.04
2023-02-01T14:30:16.739Z,20.04
2023-02-01T14:32:49.436Z,20.02
2023-02-01T14:35:30.472Z,19.96
2023-02-01T14:38:06.583Z,19.89
2023-02-01T14:40:38.300Z,19.86
2023-02-01T14:43:31.980Z,19.78
2023-02-01T14:46:03.007Z,19.65
2023-02-01T14:48:34.653Z,19.68
2023-02-01T14:51:06.387Z,19.64
2023-02-01T14:53:38.465Z,19.62
2023-02-01T14:56:15.704Z,19.71
2023-02-01T14:59:01.095Z,19.61
2023-02-01T15:01:35.160Z,19.66
2023-02-01T15:04:24.348Z,19.49
2023-02-01T15:07:10.283Z,19.58
2023-02-01T15:09:46.735Z,19.59
2023-02-01T15:12:34.166Z,19.60
2023-02-01T15:15:25.604Z,19.60
2023-02-01T15:18:05.488Z,19.52
2023-02-01T15:20:36.852Z,19.48
2023-02-01T15:23:20.072Z,19.51
2023-02-01T15:25:53.678Z,19.44
2023-02-01T15:28:25.605Z,19.52
2023-02-01T15:31:04.272Z,19.43
2023-02-01T15:33:37.420Z,19.44
2023-02-01T15:36:15.228Z,19.36
2023-02-01T15:38:47.735Z,19.31
2023-02-01T15:41:25.535Z,19.18
2023-02-01T15:44:03.829Z,19.20
2023-02-01T15:46:47.818Z,19.30
2023-02-01T15:49:40.029Z,19.33
2023-02-01T15:52:36.244Z,19.36
2023-02-01T15:55:21.481Z,19.42
2023-02-01T15:57:53.455Z,19.39
2023-02-01T16:00:32.023Z,19.37
2023-02-01T16:03:08.901Z,19.32
2023-02-01T16:05:42.633Z,19.43
2023-02-01T16:08:18.621Z,19.47
2023-02-01T16:10:56.390Z,19.38
2023-02-01T16:13:27.254Z,19.41
2023-02-01T16:15:58.405Z,19.42
2023-02-01T16:18:29.668Z,19.31
2023-02-01T16:21:00.903Z,19.38
2023-02-01T16:23:32.601Z,19.40
2023-02-01T16:26:03.958Z,19.42
2023-02-01T16:28:35.956Z,19.42
2023-02-01T16:31:07.228Z,19.40
2023-02-01T16:33:38.502Z,19.32
2023-02-01T16:36:10.995Z,19.30
2023-02-01T16:38:42.429Z,19.22
2023-02-01T16:41:17.587Z,19.21
2023-02-01T16:43:49.104Z,19.18
2023-02-01T16:46:24.789Z,19.17
2023-02-01T16:48:58.701Z,19.05
2023-02-01T16:51:34.997Z,19.03
2023-02-01T16:54:06.925Z,18.99
2023-02-01T16:56:38.344Z,18.95
2023-02-01T16:59:10.931Z,18.86
2023-02-01T17:01:44.298Z,18.89
2023-02-01T17:04:16.239Z,18.73
2023-02-01T17:06:49.696Z,18.70
2023-02-01T17:09:23.242Z,18.78
2023-02-01T17:11:54.659Z,18.76
2023-02-01T17:14:27.095Z,18.76
2023-02-01T17:16:58.926Z,18.79
2023-02-01T17:19:29.976Z,18.71
2023-02-01T17:22:01.221Z,18.77
2023-02-01T17:24:46.796Z,18.68
2023-02-01T17:27:20.197Z,18.74
2023-02-01T17:29:51.138Z,18.58
2023-02-01T17:32:26.442Z,18.67
2023-02-01T17:34:59.810Z,18.60
2023-02-01T17:37:33.301Z,18.66
2023-02-01T17:40:05.257Z,18.63
2023-02-01T17:42:38.931Z,18.44
2023-02-01T17:45:41.905Z,18.58
2023-02-01T17:48:13.161Z,18.62
2023-02-01T17:50:44.425Z,18.65
2023-02-01T17:53:16.521Z,18.70
2023-02-01T17:55:48.211Z,18.73
2023-02-01T17:58:20.199Z,18.79
2023-02-01T18:00:51.090Z,18.96
2023-02-01T18:03:29.961Z,19.02
2023-02-01T18:06:02.913Z,19.12
2023-02-01T18:08:37.112Z,19.10
2023-02-01T18:11:15.941Z,19.15
2023-02-01T18:13:47.200Z,19.18
2023-02-01T18:16:34.520Z,19.22
2023-02-01T18:19:06.535Z,19.17
2023-02-01T18:21:44.149Z,19.26
2023-02-01T18:24:17.768Z,19.30
2023-02-01T18:26:49.086Z,19.35
2023-02-01T18:29:20.540Z,19.54
2023-02-01T18:31:52.382Z,19.59
2023-02-01T18:34:25.265Z,19.69
2023-02-01T18:36:56.504Z,19.60
2023-02-01T18:39:27.559Z,19.60
2023-02-01T18:41:58.745Z,19.62
2023-02-01T18:44:29.658Z,19.61
2023-02-01T18:47:02.070Z,19.72
2023-02-01T18:49:33.320Z,19.70
2023-02-01T18:52:04.231Z,19.70
2023-02-01T18:54:36.017Z,19.87
2023-02-01T18:57:08.189Z,19.92
2023-02-01T18:59:39.290Z,19.92
2023-02-01T19:02:13.683Z,19.95
2023-02-01T19:04:44.856Z,20.05
2023-02-01T19:07:17.216Z,20.04
2023-02-01T19:09:48.456Z,20.02
2023-02-01T19:12:20.225Z,20.13
2023-02-01T19:14:50.724Z,20.27
2023-02-01T19:17:21.870Z,20.42
2023-02-01T19:19:53.012Z,20.58
2023-02-01T19:22:24.086Z,20.81
2023-02-01T19:24:55.203Z,21.00
2023-02-01T19:27:26.184Z,21.07
2023-02-01T19:29:57.391Z,21.24
2023-02-01T19:32:31.645Z,21.31
2023-02-01T19:35:02.692Z,21.46
2023-02-01T19:37:34.425Z,21.66
2023-02-01T19:40:05.924Z,21.91
2023-02-01T19:42:36.860Z,22.29
2023-02-01T19:45:09.104Z,22.70
2023-02-01T19:47:40.853Z,22.67
2023-02-01T19:50:12.609Z,22.96
2023-02-01T19:52:43.533Z,22.86
2023-02-01T19:55:15.810Z,23.12
2023-02-01T19:57:47.311Z,22.89
2023-02-01T20:00:17.971Z,22.98
2023-02-01T20:02:49.802Z,23.35
2023-02-01T20:05:21.384Z,23.69
2023-02-01T20:07:53.385Z,23.72
2023-02-01T20:10:24.560Z,23.75
2023-02-01T20:12:55.591Z,23.99
2023-02-01T20:15:28.423Z,24.15
2023-02-01T20:17:59.639Z,24.23
2023-02-01T20:20:31.261Z,24.73
2023-02-01T20:23:03.743Z,24.59
2023-02-01T20:25:35.512Z,24.73
2023-02-01T20:28:06.515Z,24.63
2023-02-01T20:30:37.685Z,24.37
2023-02-01T20:33:08.475Z,24.29
2023-02-01T20:35:39.330Z,23.88
2023-02-01T20:38:10.408Z,23.83
2023-02-01T20:40:41.783Z,24.08
2023-02-01T20:43:12.978Z,24.22
2023-02-01T20:45:44.530Z,23.98
2023-02-01T20:48:16.037Z,24.14
2023-02-01T20:50:47.587Z,24.10
2023-02-01T20:53:26.592Z,24.19
2023-02-01T20:55:59.971Z,24.60
2023-02-01T20:58:32.480Z,24.66
2023-02-01T21:01:03.604Z,24.40
2023-02-01T21:03:34.965Z,24.28
2023-02-01T21:06:06.606Z,24.63
2023-02-01T21:08:38.336Z,24.64
2023-02-01T21:11:12.620Z,24.64
2023-02-01T21:13:51.823Z,24.48
2023-02-01T21:16:24.109Z,24.68
2023-02-01T21:18:55.647Z,24.87
2023-02-01T21:21:26.614Z,25.02
2023-02-01T21:24:01.469Z,25.05
2023-02-01T21:26:45.275Z,24.75
2023-02-01T21:29:17.971Z,25.08
2023-02-01T21:31:48.988Z,25.01
2023-02-01T21:34:20.023Z,24.76
2023-02-01T21:36:51.458Z,25.02
2023-02-01T21:39:22.540Z,25.54
2023-02-01T21:42:12.189Z,25.73
2023-02-01T21:44:44.200Z,25.40
2023-02-01T21:47:14.479Z,25.98
2023-02-01T21:49:46.315Z,25.98
2023-02-01T21:52:19.114Z,26.45
2023-02-01T21:54:52.531Z,27.23
2023-02-01T21:57:23.767Z,27.72
2023-02-01T21:59:54.788Z,27.37
2023-02-01T22:02:25.852Z,27.02
2023-02-01T22:04:56.877Z,26.56
2023-02-01T22:07:28.041Z,26.63
2023-02-01T22:10:01.235Z,26.36
2023-02-01T22:12:33.614Z,26.11
2023-02-01T22:15:05.782Z,25.95
2023-02-01T22:17:38.087Z,26.36
2023-02-01T22:20:10.047Z,26.86
2023-02-01T22:22:41.324Z,26.65
2023-02-01T22:25:12.497Z,26.27
2023-02-01T22:28:32.644Z,27.19
2023-02-01T22:30:34.946Z,26.90
2023-02-01T22:33:05.519Z,26.87
2023-02-01T22:35:38.399Z,27.08
2023-02-01T22:38:09.386Z,27.76
2023-02-01T22:40:40.158Z,27.28
2023-02-01T22:43:11.311Z,27.78
2023-02-01T22:45:42.046Z,28.31
2023-02-01T22:48:13.076Z,28.17
2023-02-01T22:50:44.713Z,28.61
2023-02-01T22:53:15.822Z,29.12
2023-02-01T22:55:47.299Z,28.37
2023-02-01T22:58:18.315Z,28.66
2023-02-01T23:00:49.797Z,27.74
2023-02-01T23:03:21.532Z,28.29
2023-02-01T23:05:52.683Z,28.99
2023-02-01T23:08:23.812Z,29.37
2023-02-01T23:11:03.915Z,29.25
2023-02-01T23:13:36.223Z,29.80
2023-02-01T23:16:13.984Z,29.70
2023-02-01T23:18:45.315Z,29.56
2023-02-01T23:21:20.868Z,29.01
2023-02-01T23:24:00.269Z,28.60
2023-02-01T23:26:32.800Z,27.87
2023-02-01T23:29:04.058Z,28.12
2023-02-01T23:31:36.722Z,28.61
2023-02-01T23:34:08.244Z,28.55
2023-02-01T23:36:39.420Z,28.82
2023-02-01T23:39:10.620Z,28.90
2023-02-01T23:41:41.784Z,29.48
2023-02-01T23:44:13.130Z,29.35
2023-02-01T23:46:48.621Z,29.82
2023-02-01T23:49:20.200Z,30.48
2023-02-01T23:51:54.541Z,30.72
2023-02-01T23:54:26.145Z,30.44
2023-02-01T23:56:58.747Z,31.02
2023-02-01T23:59:32.007Z,31.24
